createdAt,value
2023-05-02T04:39:58.858Z,101059.55
2023-05-02T04:42:27.941Z,101061.57
2023-05-02T04:45:01.174Z,101063.33
2023-05-02T04:47:28.164Z,101061.41
2023-05-02T04:49:55.192Z,101067.19
2023-05-02T04:52:22.085Z,101069.25
2023-05-02T04:54:49.084Z,101068.59
2023-05-02T04:57:16.127Z,101069.64
2023-05-02T04:59:47.110Z,101071.20
2023-05-02T05:02:15.333Z,101072.09
2023-05-02T05:04:42.538Z,101071.23
2023-05-02T05:07:09.593Z,101071.52
2023-05-02T05:09:36.633Z,101068.66
2023-05-02T05:12:04.017Z,101068.08
2023-05-02T05:14:34.098Z,101069.75
2023-05-02T05:17:02.801Z,101071.79
2023-05-02T05:19:30.268Z,101069.45
2023-05-02T05:21:57.649Z,101069.58
2023-05-02T05:24:24.704Z,101072.77
2023-05-02T05:26:53.526Z,101072.83
2023-05-02T05:29:20.687Z,101070.10
2023-05-02T05:31:47.984Z,101069.77
2023-05-02T05:34:18.032Z,101071.16
2023-05-02T05:36:46.100Z,101070.09
2023-05-02T05:39:33.278Z,101064.66
2023-05-02T05:42:03.212Z,101066.34
2023-05-02T05:44:43.169Z,101066.81
2023-05-02T05:47:14.088Z,101068.02
2023-05-02T05:49:41.496Z,101070.89
2023-05-02T05:52:10.244Z,101069.55
2023-05-02T05:54:37.151Z,101070.80
2023-05-02T05:57:06.751Z,101066.92
2023-05-02T05:59:36.255Z,101069.52
2023-05-02T06:02:04.221Z,101069.15
2023-05-02T06:04:31.930Z,101073.83
2023-05-02T06:06:59.694Z,101073.92
2023-05-02T06:09:26.659Z,101073.65
2023-05-02T06:11:53.584Z,101075.31
2023-05-02T06:14:20.752Z,101072.23
2023-05-02T06:16:52.321Z,101074.38
2023-05-02T06:19:20.388Z,101069.52
2023-05-02T06:21:47.775Z,101064.98
2023-05-02T06:24:15.228Z,101063.95
2023-05-02T06:26:42.462Z,101069.58
2023-05-02T06:29:09.630Z,101072.08
2023-05-02T06:31:36.979Z,101069.82
2023-05-02T06:34:04.217Z,101067.55
2023-05-02T06:36:31.724Z,101067.90
2023-05-02T06:38:58.652Z,101068.07
2023-05-02T06:41:25.629Z,101067.36
2023-05-02T06:43:52.576Z,101059.98
2023-05-02T06:46:20.968Z,101059.80
2023-05-02T06:48:48.300Z,101059.80
2023-05-02T06:51:15.509Z,101063.96
2023-05-02T06:53:42.590Z,101065.17
2023-05-02T06:56:10.373Z,101062.86
2023-05-02T06:58:37.231Z,101064.58
2023-05-02T07:01:04.147Z,101066.69
2023-05-02T07:03:31.510Z,101069.11
2023-05-02T07:05:59.707Z,101072.92
2023-05-02T07:08:27.084Z,101072.55
2023-05-02T07:10:54.314Z,101073.59
2023-05-02T07:13:21.286Z,101070.41
2023-05-02T07:15:48.201Z,101072.31
2023-05-02T07:18:15.428Z,101074.24
2023-05-02T07:20:42.646Z,101076.49
2023-05-02T07:23:09.791Z,101081.77
2023-05-02T07:25:37.323Z,101080.52
2023-05-02T07:28:06.004Z,101077.14
2023-05-02T07:30:34.091Z,101076.60
2023-05-02T07:33:02.964Z,101074.52
2023-05-02T07:35:30.391Z,101077.83
2023-05-02T07:37:57.537Z,101076.52
2023-05-02T07:40:24.680Z,101081.70
2023-05-02T07:42:51.724Z,101079.88
2023-05-02T07:45:18.915Z,101080.66
2023-05-02T07:47:46.769Z,101083.77
2023-05-02T07:50:30.515Z,101080.55
2023-05-02T07:53:07.578Z,101080.41
2023-05-02T07:55:34.851Z,101079.46
2023-05-02T07:58:01.817Z,101080.34
2023-05-02T08:00:31.735Z,101084.94
2023-05-02T08:02:58.921Z,101083.35
2023-05-02T08:05:50.475Z,101084.41
2023-05-02T08:08:29.723Z,101082.73
2023-05-02T08:11:05.435Z,101078.91
2023-05-02T08:14:37.894Z,101080.55
2023-05-02T08:17:54.390Z,101082.70
2023-05-02T08:20:46.436Z,101081.81
2023-05-02T08:23:32.836Z,101076.92
2023-05-02T08:26:00.486Z,101080.57
2023-05-02T08:28:28.768Z,101076.17
2023-05-02T08:30:57.738Z,101076.21
2023-05-02T08:33:31.070Z,101077.92
2023-05-02T08:36:14.425Z,101077.80
2023-05-02T08:38:46.568Z,101076.84
2023-05-02T08:41:22.018Z,101076.56
2023-05-02T08:43:54.254Z,101072.58
2023-05-02T08:46:24.242Z,101070.41
2023-05-02T08:48:51.696Z,101072.85
2023-05-02T08:53:47.158Z,101072.17
2023-05-02T08:56:14.150Z,101070.90
2023-05-02T08:58:41.678Z,101066.61
2023-05-02T09:01:19.924Z,101070.48
2023-05-02T09:03:51.167Z,101067.55
2023-05-02T09:06:21.373Z,101064.77
2023-05-02T09:08:50.264Z,101062.27
2023-05-02T09:11:17.463Z,101057.13
2023-05-02T09:13:44.943Z,101052.18
2023-05-02T09:16:38.575Z,101053.73
2023-05-02T09:19:05.710Z,101053.43
2023-05-02T09:21:37.304Z,101051.48
2023-05-02T09:24:21.430Z,101052.27
2023-05-02T09:27:05.076Z,101054.09
2023-05-02T09:29:36.208Z,101055.36
2023-05-02T09:32:10.521Z,101053.03
2023-05-02T09:34:39.555Z,101053.96
2023-05-02T09:37:10.343Z,101052.43
2023-05-02T09:39:38.579Z,101046.66
2023-05-02T09:42:06.001Z,101050.03
2023-05-02T09:44:37.679Z,101048.48
2023-05-02T09:47:06.901Z,101049.08
2023-05-02T09:49:47.170Z,101045.38
2023-05-02T09:52:18.954Z,101043.86
2023-05-02T09:54:51.010Z,101044.18
2023-05-02T09:57:25.109Z,101042.03
2023-05-02T09:59:59.800Z,101041.27
2023-05-02T10:02:29.392Z,101037.13
2023-05-02T10:04:57.383Z,101039.30
2023-05-02T10:07:25.319Z,101034.70
2023-05-02T10:09:52.600Z,101039.70
2023-05-02T10:12:19.627Z,101035.03
2023-05-02T10:14:50.937Z,101031.07
2023-05-02T10:17:24.045Z,101030.92
2023-05-02T10:19:58.130Z,101029.76
2023-05-02T10:22:25.134Z,101028.02
2023-05-02T10:24:57.343Z,101031.47
2023-05-02T10:27:29.738Z,101029.04
2023-05-02T10:30:00.213Z,101028.45
2023-05-02T10:32:30.548Z,101025.48
2023-05-02T10:34:57.825Z,101030.30
2023-05-02T10:37:26.814Z,101022.73
2023-05-02T10:39:55.140Z,101018.21
2023-05-02T10:42:23.394Z,101018.58
2023-05-02T10:44:51.378Z,101020.55
2023-05-02T10:47:22.592Z,101015.52
2023-05-02T10:49:51.341Z,101016.45
2023-05-02T10:52:39.784Z,101018.46
2023-05-02T10:55:17.221Z,101019.52
2023-05-02T10:58:09.240Z,101019.01
2023-05-02T11:00:36.301Z,101017.75
2023-05-02T11:03:03.802Z,101016.82
2023-05-02T11:05:30.868Z,101012.23
2023-05-02T11:08:16.829Z,101009.88
2023-05-02T11:10:46.174Z,101009.77
2023-05-02T11:13:13.162Z,101007.66
2023-05-02T11:15:40.059Z,101010.14
2023-05-02T11:18:14.450Z,101004.88
2023-05-02T11:20:42.410Z,101005.27
2023-05-02T11:23:15.603Z,101002.21
2023-05-02T11:25:43.671Z,101000.89
2023-05-02T11:28:39.803Z,101002.27
2023-05-02T11:31:10.978Z,101001.69
2023-05-02T11:33:38.053Z,101002.90
2023-05-02T11:36:05.097Z,101003.08
2023-05-02T11:38:38.440Z,101001.61
2023-05-02T11:41:05.489Z,101000.09
2023-05-02T11:43:32.826Z,101003.32
2023-05-02T11:46:01.747Z,101002.48
2023-05-02T11:48:29.323Z,101002.40
2023-05-02T11:51:05.410Z,101002.56
2023-05-02T11:53:33.433Z,101001.25
2023-05-02T11:56:01.847Z,101002.08
2023-05-02T11:58:35.155Z,100999.04
2023-05-02T12:01:15.475Z,101001.88
2023-05-02T12:03:42.758Z,100998.06
2023-05-02T12:06:18.933Z,100997.33
2023-05-02T12:08:46.808Z,100994.32
2023-05-02T12:11:15.647Z,100987.76
2023-05-02T12:13:50.222Z,100987.77
2023-05-02T12:16:18.066Z,100983.48
2023-05-02T12:18:45.229Z,100984.64
